Time;durP1;ratioP1;P1;durP2;ratioP2;P2;SDS_P1;SDS_P2;PMS_P1;PMS_P2;Temp;Humidity;BMP_temperature;BMP_pressure;BME280_temperature;BME280_humidity;BME280_pressure;Samples;Min_cycle;Max_cycle;Signal;HPM_P1;HPM_P2
2022/01/10 00:04:03;;;;;;;5.80;2.88;;;5.10;93.50;;;;;;9821168;29;20482;-75
2022/01/10 00:08:54;;;;;;;4.35;2.95;;;5.10;93.50;;;;;;9823230;29;20419;-76
2022/01/10 00:13:45;;;;;;;4.68;2.90;;;5.00;93.80;;;;;;9819892;29;20036;-74
2022/01/10 00:18:35;;;;;;;7.13;3.20;;;4.90;93.60;;;;;;9826821;29;20038;-74
2022/01/10 00:23:26;;;;;;;5.38;3.40;;;4.90;93.60;;;;;;9827239;29;20044;-75
2022/01/10 00:28:17;;;;;;;6.60;2.90;;;4.80;93.60;;;;;;9826234;29;20422;-76
2022/01/10 00:33:07;;;;;;;6.28;3.38;;;4.70;93.60;;;;;;9818714;29;20088;-74
2022/01/10 00:37:58;;;;;;;7.15;3.08;;;4.70;93.60;;;;;;9818872;29;20099;-74
2022/01/10 00:42:55;;;;;;;4.57;2.38;;;4.60;93.60;;;;;;9837639;29;20079;-73
2022/01/10 00:47:46;;;;;;;3.70;2.45;;;4.50;93.70;;;;;;9825846;29;20032;-70
2022/01/10 00:52:37;;;;;;;5.63;2.55;;;4.50;93.80;;;;;;9826775;29;20324;-70
2022/01/10 00:57:27;;;;;;;4.85;2.90;;;4.40;93.80;;;;;;9827975;29;20020;-72
2022/01/10 01:02:20;;;;;;;2.97;2.35;;;4.40;93.80;;;;;;9818199;29;20059;-71
2022/01/10 01:07:12;;;;;;;4.18;2.22;;;4.40;93.90;;;;;;9817836;29;20040;-69
2022/01/10 01:12:19;;;;;;;4.32;1.92;;;4.30;93.90;;;;;;9830414;29;20048;-73
2022/01/10 01:17:14;;;;;;;3.17;1.73;;;4.30;94.00;;;;;;9823639;29;20028;-70
2022/01/10 01:27:14;;;;;;;4.05;3.20;;;4.60;94.20;;;;;;9813739;29;20522;-67
2022/01/10 01:32:05;;;;;;;4.97;2.83;;;4.70;94.20;;;;;;9815866;29;20039;-69
2022/01/10 01:36:56;;;;;;;4.07;2.50;;;4.90;94.20;;;;;;9818535;29;20051;-71
2022/01/10 01:41:54;;;;;;;6.18;2.85;;;5.00;94.10;;;;;;9824566;29;20040;-70
2022/01/10 01:46:45;;;;;;;3.83;2.78;;;5.00;94.40;;;;;;9823193;29;20031;-73
2022/01/10 01:51:36;;;;;;;2.97;2.35;;;5.00;94.40;;;;;;9814492;29;20027;-73
2022/01/10 01:56:27;;;;;;;8.80;2.72;;;5.00;94.50;;;;;;9821555;29;20055;-74
2022/01/10 02:01:18;;;;;;;3.85;2.58;;;5.00;94.60;;;;;;9816417;29;20048;-71
2022/01/10 02:06:09;;;;;;;5.38;2.78;;;5.00;94.70;;;;;;9825126;29;20037;-70
2022/01/10 02:11:01;;;;;;;5.30;2.88;;;5.00;94.50;;;;;;9831829;29;20058;-70
2022/01/10 02:16:03;;;;;;;4.25;3.30;;;5.00;94.50;;;;;;9829324;29;20028;-68
2022/01/10 02:20:54;;;;;;;4.28;2.58;;;5.10;94.50;;;;;;9828910;29;20036;-71
2022/01/10 02:25:46;;;;;;;5.82;2.85;;;5.00;94.60;;;;;;9822184;29;20573;-71
2022/01/10 02:30:37;;;;;;;3.05;2.50;;;5.10;94.60;;;;;;9822612;29;20033;-71
2022/01/10 02:35:38;;;;;;;5.38;2.72;;;5.00;94.60;;;;;;9825074;29;20039;-70
2022/01/10 02:40:30;;;;;;;4.25;3.35;;;5.00;94.60;;;;;;9821348;29;20550;-70
2022/01/10 02:45:21;;;;;;;4.30;3.15;;;4.90;94.50;;;;;;9824004;29;20040;-70
2022/01/10 02:50:13;;;;;;;4.47;2.88;;;4.80;94.60;;;;;;9821473;29;20680;-71
2022/01/10 02:55:06;;;;;;;4.63;3.10;;;4.80;94.70;;;;;;9823178;29;20423;-71
2022/01/10 02:59:58;;;;;;;6.22;3.38;;;4.90;94.70;;;;;;9823524;29;20023;-71
2022/01/10 03:04:49;;;;;;;8.18;3.53;;;4.90;94.80;;;;;;9823316;29;20466;-71
2022/01/10 03:09:40;;;;;;;7.28;3.67;;;4.90;94.60;;;;;;9824267;29;20031;-69
2022/01/10 03:14:30;;;;;;;6.97;3.38;;;4.80;94.60;;;;;;9823228;29;20032;-70
2022/01/10 03:19:21;;;;;;;6.47;3.40;;;4.70;94.80;;;;;;9823349;29;20032;-71
2022/01/10 03:24:12;;;;;;;7.57;3.40;;;4.70;94.90;;;;;;9823313;29;20100;-68
2022/01/10 03:29:02;;;;;;;4.85;3.42;;;4.70;94.80;;;;;;9826639;29;20285;-70
2022/01/10 03:33:53;;;;;;;6.90;3.90;;;4.70;94.80;;;;;;9822240;29;20032;-70
2022/01/10 03:38:44;;;;;;;7.47;3.65;;;4.70;95.00;;;;;;9828967;29;20217;-70
2022/01/10 03:43:35;;;;;;;7.13;4.22;;;4.70;94.80;;;;;;9826326;29;20128;-70
2022/01/10 03:48:26;;;;;;;6.63;3.78;;;4.80;94.70;;;;;;9820553;29;20407;-69
2022/01/10 03:53:16;;;;;;;6.82;4.05;;;4.70;94.80;;;;;;9825930;29;20028;-68
2022/01/10 03:58:07;;;;;;;5.55;3.30;;;4.70;94.80;;;;;;9821556;29;20111;-69
2022/01/10 04:03:03;;;;;;;6.00;3.50;;;4.70;94.80;;;;;;9830477;29;20462;-69
2022/01/10 04:07:54;;;;;;;4.38;3.13;;;4.70;94.70;;;;;;9828924;29;20047;-67
2022/01/10 04:12:45;;;;;;;7.38;3.90;;;4.60;94.70;;;;;;9814500;29;20051;-68
2022/01/10 04:17:36;;;;;;;3.15;2.03;;;4.40;94.90;;;;;;9815879;29;20134;-69
2022/01/10 04:22:27;;;;;;;3.20;2.42;;;4.40;95.00;;;;;;9817418;29;20634;-69
2022/01/10 04:27:18;;;;;;;5.07;2.67;;;4.30;95.00;;;;;;9816220;29;20028;-69
2022/01/10 04:32:11;;;;;;;4.43;2.38;;;4.30;95.10;;;;;;9819922;29;20039;-68
2022/01/10 04:37:02;;;;;;;3.30;1.92;;;4.30;95.10;;;;;;9817511;29;20024;-68
2022/01/10 04:41:52;;;;;;;7.70;2.75;;;4.40;95.00;;;;;;9814059;29;20039;-69
2022/01/10 04:46:43;;;;;;;6.38;3.17;;;4.40;95.00;;;;;;9819134;29;20032;-68
2022/01/10 04:51:34;;;;;;;9.73;3.42;;;4.40;95.00;;;;;;9815970;29;20402;-67
2022/01/10 04:56:24;;;;;;;5.85;2.90;;;4.40;95.00;;;;;;9815523;29;20028;-67
2022/01/10 05:01:17;;;;;;;6.45;3.17;;;4.50;94.90;;;;;;9813815;29;20127;-67
2022/01/10 05:06:07;;;;;;;8.20;3.03;;;4.50;95.00;;;;;;9774049;29;1270340;-68
2022/01/10 05:10:59;;;;;;;4.97;2.75;;;4.50;95.00;;;;;;9821499;29;20032;-68
2022/01/10 05:15:51;;;;;;;6.15;2.50;;;4.50;95.00;;;;;;9821447;29;20032;-68
2022/01/10 05:20:44;;;;;;;6.95;2.35;;;4.60;95.10;;;;;;9818609;29;20020;-69
2022/01/10 05:25:39;;;;;;;6.00;3.25;;;4.50;95.30;;;;;;9823538;29;20036;-68
2022/01/10 05:30:30;;;;;;;6.22;2.95;;;4.40;95.20;;;;;;9817670;29;20044;-66
2022/01/10 05:35:21;;;;;;;4.75;2.92;;;4.30;95.20;;;;;;9823024;29;20119;-66
2022/01/10 05:40:12;;;;;;;7.30;2.47;;;4.20;95.30;;;;;;9819474;29;20020;-67
2022/01/10 05:45:03;;;;;;;5.15;2.55;;;4.20;95.10;;;;;;9822071;29;20062;-68
2022/01/10 05:50:00;;;;;;;5.00;2.47;;;4.10;95.00;;;;;;9826741;29;20020;-68
2022/01/10 05:54:51;;;;;;;3.63;2.17;;;4.10;95.10;;;;;;9823812;29;20043;-67
2022/01/10 05:59:42;;;;;;;3.75;2.13;;;4.10;95.10;;;;;;9825825;29;20060;-67
2022/01/10 06:04:32;;;;;;;4.35;2.53;;;4.10;95.10;;;;;;9824324;29;20421;-65
2022/01/10 06:09:23;;;;;;;5.28;2.65;;;4.20;95.40;;;;;;9824580;29;20028;-69
2022/01/10 06:14:14;;;;;;;5.57;3.80;;;4.20;95.50;;;;;;9826738;29;20035;-68
2022/01/10 06:19:05;;;;;;;4.47;3.17;;;4.20;95.30;;;;;;9822243;29;20047;-67
2022/01/10 06:23:55;;;;;;;5.15;2.65;;;4.20;95.30;;;;;;9822270;29;20040;-67
2022/01/10 06:28:46;;;;;;;4.90;3.30;;;4.20;95.30;;;;;;9822367;29;20075;-67
2022/01/10 06:33:37;;;;;;;4.35;2.95;;;4.20;95.20;;;;;;9821774;29;20091;-68
2022/01/10 06:38:27;;;;;;;7.53;3.00;;;4.20;95.20;;;;;;9829490;29;20034;-67
2022/01/10 06:43:18;;;;;;;5.38;2.60;;;4.10;95.20;;;;;;9818033;29;20598;-66
2022/01/10 06:48:09;;;;;;;7.22;3.30;;;4.10;95.00;;;;;;9823397;29;20024;-66
2022/01/10 06:53:02;;;;;;;2.78;2.25;;;4.10;95.20;;;;;;9820632;29;20064;-67
2022/01/10 06:57:54;;;;;;;4.47;2.17;;;4.10;95.30;;;;;;9815603;29;20063;-68
2022/01/10 07:02:44;;;;;;;4.10;2.75;;;4.00;95.40;;;;;;9826073;29;20628;-67
2022/01/10 07:07:35;;;;;;;6.15;2.45;;;4.10;95.50;;;;;;9825937;29;20152;-66
2022/01/10 07:12:26;;;;;;;4.15;2.22;;;4.00;95.50;;;;;;9820922;29;20507;-68
2022/01/10 07:17:16;;;;;;;6.07;2.88;;;4.10;95.40;;;;;;9823240;29;20024;-68
2022/01/10 07:22:07;;;;;;;6.55;3.25;;;4.10;95.40;;;;;;9827675;29;20352;-67
2022/01/10 07:26:58;;;;;;;4.60;2.85;;;4.10;95.40;;;;;;9821407;29;20040;-67
2022/01/10 07:31:49;;;;;;;4.43;3.08;;;4.10;95.40;;;;;;9824988;29;20498;-66
2022/01/10 07:36:40;;;;;;;8.55;4.53;;;4.10;95.50;;;;;;9820328;29;20087;-69
2022/01/10 07:41:31;;;;;;;5.07;2.90;;;4.00;95.50;;;;;;9821372;29;20459;-66
2022/01/10 07:46:22;;;;;;;6.55;2.30;;;4.00;95.50;;;;;;9819986;29;20020;-65
2022/01/10 07:51:13;;;;;;;5.13;2.28;;;3.90;95.60;;;;;;9818583;29;20047;-69
2022/01/10 07:56:05;;;;;;;3.45;2.38;;;4.00;95.50;;;;;;9817051;29;20508;-69
2022/01/10 08:00:56;;;;;;;2.63;2.28;;;3.80;95.60;;;;;;9819799;29;20028;-68
2022/01/10 08:05:46;;;;;;;6.63;2.65;;;3.80;95.50;;;;;;9818803;29;20150;-65
2022/01/10 08:10:37;;;;;;;6.18;2.38;;;3.90;95.60;;;;;;9814796;29;20024;-66
2022/01/10 08:15:28;;;;;;;5.15;2.40;;;4.00;95.40;;;;;;9817754;29;20377;-69
2022/01/10 08:20:19;;;;;;;5.60;3.08;;;4.00;95.50;;;;;;9818844;29;20032;-65
2022/01/10 08:25:10;;;;;;;4.47;2.65;;;4.10;95.40;;;;;;9819769;29;20446;-68
2022/01/10 08:30:03;;;;;;;5.25;2.75;;;4.00;95.50;;;;;;9817235;29;20032;-65
2022/01/10 08:34:53;;;;;;;7.97;3.85;;;4.00;95.60;;;;;;9817754;29;20209;-69
2022/01/10 08:39:49;;;;;;;6.93;4.22;;;4.00;95.50;;;;;;9814587;29;20274;-71
2022/01/10 08:44:40;;;;;;;6.33;2.83;;;4.00;95.50;;;;;;9818319;29;20059;-71
2022/01/10 08:49:30;;;;;;;9.75;3.17;;;4.00;95.50;;;;;;9817422;29;20036;-70
2022/01/10 08:54:22;;;;;;;6.28;3.55;;;4.00;95.60;;;;;;9821581;29;20043;-66
2022/01/10 08:59:13;;;;;;;5.13;3.40;;;4.20;95.40;;;;;;9824990;29;20623;-66
2022/01/10 09:04:04;;;;;;;6.50;2.95;;;4.30;95.30;;;;;;9815710;29;20044;-66
2022/01/10 09:08:54;;;;;;;6.50;3.20;;;4.20;95.30;;;;;;9811210;29;20269;-70
2022/01/10 09:13:45;;;;;;;5.78;3.45;;;4.20;95.40;;;;;;9815105;29;20024;-68
2022/01/10 09:18:36;;;;;;;8.63;3.25;;;4.20;95.60;;;;;;9814537;29;20028;-67
2022/01/10 09:23:27;;;;;;;5.68;3.25;;;4.30;95.40;;;;;;9816898;29;20051;-66
2022/01/10 09:28:19;;;;;;;6.43;3.13;;;4.20;95.20;;;;;;9815097;29;20040;-67
2022/01/10 09:33:10;;;;;;;6.18;3.05;;;4.20;95.30;;;;;;9822599;29;20148;-69
2022/01/10 09:38:01;;;;;;;9.95;3.20;;;4.30;95.20;;;;;;9816221;29;20109;-68
2022/01/10 09:42:52;;;;;;;5.13;2.80;;;4.30;95.30;;;;;;9816723;29;20047;-66
2022/01/10 09:47:43;;;;;;;7.10;2.92;;;4.40;95.20;;;;;;9822342;29;20032;-66
2022/01/10 09:52:35;;;;;;;5.75;2.92;;;4.30;95.10;;;;;;9815526;29;20043;-66
2022/01/10 09:57:25;;;;;;;8.98;3.80;;;4.40;95.20;;;;;;9814498;29;20031;-69
2022/01/10 10:02:17;;;;;;;6.07;3.10;;;4.40;95.10;;;;;;9813525;29;20391;-66
2022/01/10 10:07:08;;;;;;;8.80;3.38;;;4.60;95.00;;;;;;9813592;29;20119;-69
2022/01/10 10:12:01;;;;;;;5.30;2.97;;;4.60;95.00;;;;;;9814979;29;20619;-65
2022/01/10 10:16:54;;;;;;;5.32;2.80;;;4.60;95.10;;;;;;9813958;29;20031;-71
2022/01/10 10:21:45;;;;;;;7.72;3.20;;;4.80;95.10;;;;;;9815324;29;20426;-72
2022/01/10 10:26:36;;;;;;;8.60;3.60;;;5.10;94.80;;;;;;9810015;29;20031;-68
2022/01/10 10:31:46;;;;;;;3.92;3.10;;;5.10;94.80;;;;;;9818766;29;20039;-66
2022/01/10 10:36:37;;;;;;;7.95;3.70;;;5.30;94.70;;;;;;9821523;29;20513;-66
2022/01/10 10:41:28;;;;;;;10.52;4.72;;;5.30;94.70;;;;;;9816765;29;20060;-68
2022/01/10 10:46:24;;;;;;;5.32;3.20;;;5.30;94.60;;;;;;9817152;29;20072;-67
2022/01/10 10:51:15;;;;;;;9.20;4.90;;;5.40;94.50;;;;;;9821605;29;20295;-66
2022/01/10 10:56:07;;;;;;;5.97;3.45;;;5.10;94.40;;;;;;9824934;29;20044;-68
2022/01/10 11:01:00;;;;;;;4.68;2.78;;;5.00;94.60;;;;;;9824328;29;20028;-68
2022/01/10 11:05:57;;;;;;;7.13;3.47;;;5.00;94.50;;;;;;9804672;29;20053;-65
2022/01/10 11:10:48;;;;;;;5.80;4.05;;;5.00;94.20;;;;;;9818405;29;20213;-71
2022/01/10 11:15:39;;;;;;;4.28;2.58;;;5.00;94.20;;;;;;9823636;29;20047;-65
2022/01/10 11:20:40;;;;;;;6.05;2.72;;;5.00;94.20;;;;;;9824342;29;20277;-65
2022/01/10 11:25:34;;;;;;;7.88;3.10;;;5.00;94.20;;;;;;9822055;29;20502;-66
2022/01/10 11:30:33;;;;;;;5.18;2.83;;;5.10;94.20;;;;;;9823452;29;20390;-66
2022/01/10 11:35:29;;;;;;;8.50;3.72;;;5.40;94.00;;;;;;9813807;29;20043;-69
2022/01/10 11:40:20;;;;;;;7.97;3.47;;;5.40;94.00;;;;;;9820717;29;20020;-66
2022/01/10 11:45:13;;;;;;;6.68;2.95;;;5.40;93.90;;;;;;9809383;29;20082;-65
2022/01/10 11:50:24;;;;;;;4.53;2.42;;;5.40;93.90;;;;;;9821882;29;20026;-66
2022/01/10 11:55:14;;;;;;;5.65;3.10;;;5.60;93.90;;;;;;9814324;29;20099;-65
2022/01/10 12:00:09;;;;;;;5.97;2.42;;;5.50;93.80;;;;;;9837601;29;20571;-66
2022/01/10 12:05:02;;;;;;;8.70;3.30;;;5.60;93.80;;;;;;9820632;29;20157;-65
2022/01/10 12:09:54;;;;;;;8.85;2.70;;;5.70;93.80;;;;;;9805136;29;20028;-65
2022/01/10 12:14:47;;;;;;;7.28;3.10;;;5.80;93.80;;;;;;9812626;29;20036;-64
2022/01/10 12:19:39;;;;;;;7.57;3.25;;;5.80;93.70;;;;;;9821002;29;20054;-66
2022/01/10 12:24:31;;;;;;;10.68;4.20;;;5.90;93.60;;;;;;9818304;29;20071;-64
2022/01/10 12:29:24;;;;;;;9.98;3.17;;;6.00;93.60;;;;;;9816164;29;20659;-63
2022/01/10 12:34:15;;;;;;;7.65;3.63;;;5.90;93.60;;;;;;9811938;29;20522;-65
2022/01/10 12:39:11;;;;;;;7.88;3.90;;;6.00;93.90;;;;;;9818296;29;20495;-65
2022/01/10 12:44:02;;;;;;;7.07;3.80;;;6.00;93.70;;;;;;9805641;29;20153;-66
2022/01/10 12:48:54;;;;;;;10.27;3.13;;;6.20;93.60;;;;;;9818908;29;20183;-65
2022/01/10 12:53:48;;;;;;;6.53;3.50;;;6.30;93.50;;;;;;9795110;29;20050;-64
2022/01/10 12:58:39;;;;;;;9.82;3.72;;;6.30;93.50;;;;;;9796156;29;20039;-64
2022/01/10 13:03:29;;;;;;;7.70;4.07;;;6.30;93.40;;;;;;9809087;29;20062;-64
2022/01/10 13:08:20;;;;;;;7.25;3.90;;;6.50;93.50;;;;;;9819099;29;20055;-60
2022/01/10 13:13:11;;;;;;;8.23;3.80;;;6.70;93.40;;;;;;9798871;29;20032;-60
2022/01/10 13:18:03;;;;;;;9.63;4.20;;;6.70;93.40;;;;;;9810556;29;20027;-60
2022/01/10 13:23:06;;;;;;;8.73;4.38;;;6.60;93.50;;;;;;9811763;29;20048;-59
2022/01/10 13:28:04;;;;;;;9.88;4.60;;;6.60;93.50;;;;;;9810385;29;20029;-62
2022/01/10 13:33:13;;;;;;;9.52;3.90;;;6.50;93.40;;;;;;9812213;29;20083;-63
2022/01/10 13:38:12;;;;;;;9.73;4.50;;;6.60;93.40;;;;;;9796845;29;20059;-62
2022/01/10 13:43:04;;;;;;;7.90;4.45;;;6.70;93.30;;;;;;9796662;29;20543;-61
2022/01/10 13:47:56;;;;;;;9.82;4.25;;;6.90;93.10;;;;;;9798616;29;20036;-61
2022/01/10 13:53:05;;;;;;;8.10;4.20;;;6.90;93.30;;;;;;9810326;29;20390;-61
2022/01/10 13:57:56;;;;;;;5.32;3.40;;;7.00;93.30;;;;;;9801699;29;20032;-60
2022/01/10 14:02:46;;;;;;;9.73;3.05;;;6.70;93.40;;;;;;9801779;29;20047;-59
2022/01/10 14:07:39;;;;;;;8.95;3.55;;;6.60;93.50;;;;;;9810631;29;20507;-60
2022/01/10 14:12:29;;;;;;;8.20;3.38;;;6.60;93.40;;;;;;9805513;29;20451;-63
2022/01/10 14:17:20;;;;;;;10.57;3.08;;;6.70;93.30;;;;;;9830279;29;20036;-62
2022/01/10 14:22:10;;;;;;;11.85;3.60;;;6.70;93.50;;;;;;9826475;29;20190;-61
2022/01/10 14:27:01;;;;;;;7.78;3.38;;;6.60;93.30;;;;;;9823202;29;20065;-61
2022/01/10 14:31:52;;;;;;;4.78;2.70;;;6.50;93.30;;;;;;9822441;29;20049;-62
2022/01/10 14:36:43;;;;;;;5.97;3.17;;;6.50;93.30;;;;;;9812958;29;20345;-61
2022/01/10 14:41:34;;;;;;;6.80;3.50;;;6.50;93.20;;;;;;9806504;29;20056;-62
2022/01/10 14:46:25;;;;;;;8.35;3.40;;;6.50;93.10;;;;;;9801407;29;20027;-62
2022/01/10 14:51:16;;;;;;;7.15;3.58;;;6.60;93.10;;;;;;9811128;29;20029;-62
2022/01/10 14:56:09;;;;;;;7.85;3.80;;;6.70;93.00;;;;;;9814174;29;20020;-61
2022/01/10 15:01:00;;;;;;;8.20;4.03;;;6.80;92.90;;;;;;9802159;29;20116;-60
2022/01/10 15:05:53;;;;;;;5.57;3.40;;;6.70;93.00;;;;;;9803379;29;20466;-61
2022/01/10 15:10:44;;;;;;;6.88;3.28;;;6.70;93.00;;;;;;9805804;29;21255;-60
2022/01/10 15:15:35;;;;;;;6.10;3.95;;;6.70;93.10;;;;;;9805852;29;20021;-60
2022/01/10 15:20:25;;;;;;;5.20;3.05;;;6.60;93.00;;;;;;9810359;29;20566;-60
2022/01/10 15:25:16;;;;;;;8.55;3.70;;;6.50;93.00;;;;;;9809309;29;20044;-59
2022/01/10 15:30:08;;;;;;;4.85;3.13;;;6.40;93.00;;;;;;9806377;29;20055;-60
2022/01/10 15:34:58;;;;;;;6.57;3.08;;;6.30;93.00;;;;;;9806831;29;20033;-60
2022/01/10 15:39:49;;;;;;;9.18;3.67;;;6.20;93.00;;;;;;9802960;29;20024;-60
2022/01/10 15:44:44;;;;;;;5.47;2.85;;;6.10;93.00;;;;;;9802533;29;20036;-60
2022/01/10 15:49:35;;;;;;;6.85;3.25;;;6.10;93.00;;;;;;9808363;29;20135;-63
2022/01/10 15:54:26;;;;;;;7.50;3.47;;;6.00;93.00;;;;;;9802857;29;20475;-61
2022/01/10 15:59:16;;;;;;;6.38;3.17;;;5.90;92.90;;;;;;9802395;29;20127;-61
2022/01/10 16:04:07;;;;;;;7.07;3.08;;;5.90;93.00;;;;;;9799825;29;20045;-63
2022/01/10 16:08:59;;;;;;;16.42;3.92;;;5.90;93.00;;;;;;9801673;29;20024;-62
2022/01/10 16:13:52;;;;;;;7.82;3.28;;;5.80;93.00;;;;;;9803742;29;20036;-60
2022/01/10 16:18:43;;;;;;;7.35;3.22;;;5.80;93.00;;;;;;9804220;29;20100;-60
2022/01/10 16:23:34;;;;;;;12.30;3.92;;;5.70;93.00;;;;;;9798674;29;20040;-64
2022/01/10 16:28:24;;;;;;;5.97;3.35;;;5.60;93.00;;;;;;9795394;29;20021;-60
2022/01/10 16:33:15;;;;;;;9.20;3.40;;;5.60;93.00;;;;;;9797726;29;20071;-58
2022/01/10 16:38:06;;;;;;;9.65;4.30;;;5.60;93.20;;;;;;9807327;29;20029;-61
2022/01/10 16:42:59;;;;;;;6.13;3.72;;;5.60;93.10;;;;;;9802687;29;20055;-58
2022/01/10 16:47:49;;;;;;;9.60;3.88;;;5.50;93.10;;;;;;9810625;29;20484;-60
2022/01/10 16:52:42;;;;;;;10.73;4.05;;;5.40;93.10;;;;;;9802154;29;20043;-59
2022/01/10 16:57:32;;;;;;;4.95;3.38;;;5.40;93.10;;;;;;9802231;29;20027;-61
2022/01/10 17:02:23;;;;;;;12.60;5.72;;;5.40;93.10;;;;;;9803733;29;20047;-59
2022/01/10 17:07:14;;;;;;;10.65;5.13;;;5.30;93.10;;;;;;9793119;29;20052;-60
2022/01/10 17:12:05;;;;;;;8.05;4.50;;;5.20;93.10;;;;;;9797735;29;20043;-60
2022/01/10 17:16:56;;;;;;;7.93;4.55;;;5.10;93.60;;;;;;9802096;29;20217;-57
2022/01/10 17:21:47;;;;;;;7.25;4.95;;;5.00;93.60;;;;;;9801911;29;20126;-59
2022/01/10 17:26:39;;;;;;;8.20;4.10;;;4.80;93.60;;;;;;9799876;29;20318;-58
2022/01/10 17:31:31;;;;;;;8.75;4.57;;;4.80;93.70;;;;;;9802209;29;20106;-57
2022/01/10 17:36:23;;;;;;;8.20;4.63;;;4.60;93.70;;;;;;9803666;29;20712;-58
2022/01/10 17:41:14;;;;;;;10.05;4.68;;;4.60;93.80;;;;;;9807072;29;20032;-58
2022/01/10 17:46:04;;;;;;;10.60;5.30;;;4.20;94.10;;;;;;9809788;29;20455;-60
2022/01/10 17:51:00;;;;;;;6.10;3.97;;;4.10;94.50;;;;;;9807540;29;20478;-59
2022/01/10 17:55:51;;;;;;;10.73;5.17;;;4.00;94.30;;;;;;9803445;29;20149;-60
2022/01/10 18:00:42;;;;;;;8.90;4.75;;;4.00;94.40;;;;;;9803657;29;20040;-69
2022/01/10 18:05:33;;;;;;;8.73;4.78;;;3.70;94.30;;;;;;9807410;29;20059;-60
2022/01/10 18:10:27;;;;;;;9.63;5.40;;;3.50;94.60;;;;;;9836554;29;20032;-62
2022/01/10 18:15:18;;;;;;;12.70;5.57;;;3.50;94.80;;;;;;9813520;29;20507;-61
2022/01/10 18:20:11;;;;;;;11.32;5.13;;;3.40;94.70;;;;;;9831417;29;20040;-61
2022/01/10 18:25:22;;;;;;;15.77;5.50;;;3.50;94.80;;;;;;9829648;29;20078;-60
2022/01/10 18:30:16;;;;;;;7.97;4.68;;;3.40;94.90;;;;;;9833154;29;20070;-63
2022/01/10 18:35:09;;;;;;;12.10;6.38;;;3.40;94.90;;;;;;9808555;29;20032;-64
2022/01/10 18:40:02;;;;;;;11.40;5.03;;;3.30;95.10;;;;;;9809573;29;20384;-63
2022/01/10 18:44:54;;;;;;;10.93;4.47;;;3.40;95.20;;;;;;9806080;29;20036;-65
2022/01/10 18:49:45;;;;;;;14.63;6.07;;;3.30;95.30;;;;;;9825929;29;20139;-62
2022/01/10 18:54:37;;;;;;;13.27;4.90;;;3.20;95.30;;;;;;9820121;29;20139;-62
2022/01/10 18:59:28;;;;;;;17.50;6.72;;;3.10;95.50;;;;;;9831054;29;20028;-62
2022/01/10 19:04:20;;;;;;;13.13;6.28;;;3.20;95.50;;;;;;9805910;29;20439;-64
2022/01/10 19:09:13;;;;;;;13.10;5.43;;;3.00;95.60;;;;;;9825254;29;20432;-63
2022/01/10 19:14:04;;;;;;;13.75;5.97;;;3.10;95.50;;;;;;9821223;29;20554;-64
2022/01/10 19:18:54;;;;;;;14.27;5.55;;;2.90;95.70;;;;;;9829558;29;20354;-64
2022/01/10 19:23:45;;;;;;;10.55;4.85;;;2.90;95.60;;;;;;9823204;29;20542;-64
2022/01/10 19:28:36;;;;;;;12.80;5.35;;;3.10;95.80;;;;;;9820862;29;20103;-63
2022/01/10 19:33:26;;;;;;;14.68;6.40;;;3.10;95.50;;;;;;9821153;29;20072;-62
2022/01/10 19:38:17;;;;;;;13.77;6.03;;;3.00;95.50;;;;;;9823462;29;20490;-66
2022/01/10 19:43:10;;;;;;;14.40;5.22;;;3.00;95.70;;;;;;9820978;29;20047;-66
2022/01/10 19:48:01;;;;;;;13.57;4.80;;;3.10;95.60;;;;;;9821947;29;20139;-64
2022/01/10 19:52:52;;;;;;;11.45;4.70;;;3.20;95.60;;;;;;9822176;29;20087;-63
2022/01/10 19:57:47;;;;;;;17.40;5.57;;;3.20;95.70;;;;;;9832331;29;20510;-64
2022/01/10 20:02:39;;;;;;;13.77;5.15;;;3.30;95.70;;;;;;9820736;29;20446;-62
2022/01/10 20:07:30;;;;;;;10.63;4.70;;;3.30;95.90;;;;;;9822519;29;20099;-64
2022/01/10 20:12:20;;;;;;;11.55;4.68;;;3.20;95.70;;;;;;9814495;29;20087;-65
2022/01/10 20:17:11;;;;;;;14.43;5.82;;;3.10;96.10;;;;;;9825577;29;21000;-65
2022/01/10 20:22:02;;;;;;;11.10;5.35;;;3.10;96.00;;;;;;9809666;29;20100;-67
2022/01/10 20:26:53;;;;;;;15.15;5.47;;;3.10;96.10;;;;;;9826618;29;20168;-64
2022/01/10 20:31:43;;;;;;;15.13;5.25;;;3.20;96.00;;;;;;9810345;29;20122;-64
2022/01/10 20:36:34;;;;;;;13.75;5.78;;;3.00;96.10;;;;;;9819913;29;20039;-67
2022/01/10 20:41:25;;;;;;;14.25;4.88;;;2.80;96.10;;;;;;9815188;29;20040;-63
2022/01/10 20:46:16;;;;;;;15.00;5.22;;;2.90;96.30;;;;;;9817916;29;20107;-66
2022/01/10 20:51:07;;;;;;;15.98;6.38;;;2.90;96.30;;;;;;9814896;29;20032;-64
2022/01/10 20:55:58;;;;;;;15.27;5.32;;;2.80;96.30;;;;;;9821660;29;20036;-63
2022/01/10 21:00:49;;;;;;;10.75;5.15;;;2.80;96.50;;;;;;9813747;29;20063;-62
2022/01/10 21:05:41;;;;;;;12.57;6.18;;;2.60;96.60;;;;;;9813074;29;20548;-63
2022/01/10 21:10:31;;;;;;;9.88;4.82;;;2.50;96.50;;;;;;9813551;29;20024;-63
2022/01/10 21:15:22;;;;;;;12.25;5.07;;;2.60;96.30;;;;;;9817061;29;20030;-60
2022/01/10 21:20:14;;;;;;;12.32;4.82;;;2.60;96.50;;;;;;9816331;29;20423;-62
2022/01/10 21:25:08;;;;;;;11.30;5.60;;;2.90;96.40;;;;;;9820380;29;20047;-63
2022/01/10 21:29:58;;;;;;;11.88;5.30;;;3.00;96.20;;;;;;9811271;29;20466;-64
2022/01/10 21:34:49;;;;;;;9.60;4.95;;;3.10;96.00;;;;;;9815934;29;20047;-62
2022/01/10 21:39:39;;;;;;;9.85;4.72;;;2.90;96.40;;;;;;9818484;29;20029;-61
2022/01/10 21:44:30;;;;;;;9.07;4.07;;;3.00;96.40;;;;;;9821888;29;20123;-62
2022/01/10 21:49:21;;;;;;;9.40;4.43;;;2.90;96.50;;;;;;9816901;29;20020;-65
2022/01/10 21:54:11;;;;;;;12.48;4.82;;;2.70;96.60;;;;;;9815786;29;20027;-66
2022/01/10 21:59:02;;;;;;;9.40;4.43;;;2.60;96.60;;;;;;9814235;29;20488;-61
2022/01/10 22:03:54;;;;;;;7.18;3.95;;;2.60;96.60;;;;;;9818701;29;20410;-62
2022/01/10 22:08:44;;;;;;;9.75;4.47;;;2.60;96.80;;;;;;9817585;29;20398;-62
2022/01/10 22:13:36;;;;;;;8.48;4.65;;;2.60;96.60;;;;;;9821915;29;20204;-65
2022/01/10 22:18:29;;;;;;;9.60;4.78;;;2.70;96.50;;;;;;9817971;29;20462;-64
2022/01/10 22:23:19;;;;;;;10.02;4.55;;;2.50;96.40;;;;;;9820589;29;21443;-64
2022/01/10 22:28:11;;;;;;;10.25;4.85;;;2.50;96.60;;;;;;9822682;29;20122;-65
2022/01/10 22:33:01;;;;;;;12.38;4.22;;;2.50;96.50;;;;;;9822218;29;20032;-65
2022/01/10 22:37:52;;;;;;;14.27;5.53;;;2.70;96.50;;;;;;9819643;29;20036;-64
2022/01/10 22:42:43;;;;;;;11.60;5.30;;;2.70;96.50;;;;;;9825493;29;20047;-64
2022/01/10 22:47:34;;;;;;;9.07;4.90;;;2.80;96.50;;;;;;9824491;29;20588;-63
2022/01/10 22:52:24;;;;;;;12.30;4.93;;;2.80;96.50;;;;;;9824796;29;20035;-63
2022/01/10 22:57:15;;;;;;;13.80;4.72;;;2.90;96.50;;;;;;9822443;29;20538;-63
2022/01/10 23:02:06;;;;;;;13.38;5.18;;;3.10;96.40;;;;;;9836040;29;20042;-64
2022/01/10 23:06:58;;;;;;;13.88;5.18;;;3.10;96.30;;;;;;9819972;29;20055;-63
2022/01/10 23:11:49;;;;;;;12.07;4.93;;;3.10;96.30;;;;;;9823076;29;20083;-63
2022/01/10 23:16:40;;;;;;;14.35;5.45;;;3.00;96.50;;;;;;9823569;29;20073;-63
2022/01/10 23:21:33;;;;;;;13.25;5.07;;;2.90;96.50;;;;;;9827633;29;20036;-63
2022/01/10 23:26:24;;;;;;;13.75;6.43;;;2.90;96.60;;;;;;9823548;29;20028;-63
2022/01/10 23:31:15;;;;;;;18.92;7.15;;;2.70;96.40;;;;;;9820306;29;20034;-62
2022/01/10 23:36:06;;;;;;;12.38;4.82;;;2.50;96.40;;;;;;9819412;29;20422;-63
2022/01/10 23:40:56;;;;;;;8.50;5.05;;;2.30;96.50;;;;;;9821151;29;20037;-66
2022/01/10 23:45:47;;;;;;;13.55;6.20;;;2.40;96.60;;;;;;9824481;29;20100;-63
2022/01/10 23:50:45;;;;;;;16.55;5.57;;;2.40;96.40;;;;;;9825069;29;20031;-63
2022/01/10 23:55:37;;;;;;;11.90;5.05;;;2.30;96.50;;;;;;9817587;29;20091;-62
